sensor_id;sensor_type;location;lat;lon;timestamp;pressure;altitude;pressure_sealevel;temperature;humidity
12949;BME280;6539;49.476;8.484;2024-03-08T00:01:41;100513.88;;;7.27;67.38
12949;BME280;6539;49.476;8.484;2024-03-08T00:04:29;100515.78;;;7.23;67.79
12949;BME280;6539;49.476;8.484;2024-03-08T00:07:18;100506.06;;;7.22;67.78
12949;BME280;6539;49.476;8.484;2024-03-08T00:10:09;100498.59;;;7.19;68.10
12949;BME280;6539;49.476;8.484;2024-03-08T00:12:58;100499.41;;;7.19;67.91
12949;BME280;6539;49.476;8.484;2024-03-08T00:15:44;100499.78;;;7.18;67.57
12949;BME280;6539;49.476;8.484;2024-03-08T00:18:33;100498.97;;;7.14;67.66
12949;BME280;6539;49.476;8.484;2024-03-08T00:21:19;100492.34;;;7.11;68.03
12949;BME280;6539;49.476;8.484;2024-03-08T00:24:05;100494.25;;;7.07;68.06
12949;BME280;6539;49.476;8.484;2024-03-08T00:26:53;100489.56;;;7.08;68.02
12949;BME280;6539;49.476;8.484;2024-03-08T00:29:40;100489.94;;;7.06;67.69
12949;BME280;6539;49.476;8.484;2024-03-08T00:32:26;100481.34;;;7.04;68.13
12949;BME280;6539;49.476;8.484;2024-03-08T00:35:15;100481.34;;;7.04;67.97
12949;BME280;6539;49.476;8.484;2024-03-08T00:38:01;100483.69;;;7.02;67.82
12949;BME280;6539;49.476;8.484;2024-03-08T00:40:47;100477.81;;;7.00;68.29
12949;BME280;6539;49.476;8.484;2024-03-08T00:43:38;100471.56;;;6.96;68.19
12949;BME280;6539;49.476;8.484;2024-03-08T00:46:24;100481.59;;;6.85;68.40
12949;BME280;6539;49.476;8.484;2024-03-08T00:49:11;100471.84;;;6.84;69.00
12949;BME280;6539;49.476;8.484;2024-03-08T00:51:58;100469.50;;;6.82;68.94
12949;BME280;6539;49.476;8.484;2024-03-08T00:54:46;100464.03;;;6.82;68.74
12949;BME280;6539;49.476;8.484;2024-03-08T00:57:32;100463.63;;;6.77;69.63
12949;BME280;6539;49.476;8.484;2024-03-08T01:00:23;100465.56;;;6.76;69.28
12949;BME280;6539;49.476;8.484;2024-03-08T01:03:09;100474.88;;;6.75;69.52
12949;BME280;6539;49.476;8.484;2024-03-08T01:05:56;100448.78;;;6.74;69.14
12949;BME280;6539;49.476;8.484;2024-03-08T01:08:42;100460.88;;;6.77;69.62
12949;BME280;6539;49.476;8.484;2024-03-08T01:11:28;100455.44;;;6.77;68.95
12949;BME280;6539;49.476;8.484;2024-03-08T01:14:15;100458.88;;;6.70;69.13
12949;BME280;6539;49.476;8.484;2024-03-08T01:17:01;100456.16;;;6.70;68.78
12949;BME280;6539;49.476;8.484;2024-03-08T01:19:49;100447.53;;;6.65;68.89
12949;BME280;6539;49.476;8.484;2024-03-08T01:22:38;100449.84;;;6.63;68.97
12949;BME280;6539;49.476;8.484;2024-03-08T01:25:25;100449.78;;;6.56;69.25
12949;BME280;6539;49.476;8.484;2024-03-08T01:28:11;100440.44;;;6.53;69.19
12949;BME280;6539;49.476;8.484;2024-03-08T01:30:57;100436.16;;;6.56;68.90
12949;BME280;6539;49.476;8.484;2024-03-08T01:33:43;100429.84;;;6.48;69.03
12949;BME280;6539;49.476;8.484;2024-03-08T01:36:29;100427.91;;;6.49;69.01
12949;BME280;6539;49.476;8.484;2024-03-08T01:39:15;100429.06;;;6.48;68.72
12949;BME280;6539;49.476;8.484;2024-03-08T01:42:03;100416.97;;;6.45;69.04
12949;BME280;6539;49.476;8.484;2024-03-08T01:44:51;100410.72;;;6.41;68.74
12949;BME280;6539;49.476;8.484;2024-03-08T01:47:37;100420.00;;;6.37;68.97
12949;BME280;6539;49.476;8.484;2024-03-08T01:50:23;100410.28;;;6.36;69.06
12949;BME280;6539;49.476;8.484;2024-03-08T01:53:13;100408.69;;;6.35;69.01
12949;BME280;6539;49.476;8.484;2024-03-08T01:56:01;100396.66;;;6.36;69.17
12949;BME280;6539;49.476;8.484;2024-03-08T01:58:51;100400.56;;;6.38;68.66
12949;BME280;6539;49.476;8.484;2024-03-08T02:01:37;100400.56;;;6.38;68.77
12949;BME280;6539;49.476;8.484;2024-03-08T02:04:23;100393.53;;;6.37;68.85
12949;BME280;6539;49.476;8.484;2024-03-08T02:07:12;100405.94;;;6.31;69.02
12949;BME280;6539;49.476;8.484;2024-03-08T02:09:58;100389.59;;;6.31;68.84
12949;BME280;6539;49.476;8.484;2024-03-08T02:12:49;100388.41;;;6.29;69.10
12949;BME280;6539;49.476;8.484;2024-03-08T02:15:59;100394.56;;;6.22;69.31
12949;BME280;6539;49.476;8.484;2024-03-08T02:18:47;100394.97;;;6.21;69.50
12949;BME280;6539;49.476;8.484;2024-03-08T02:21:36;100386.38;;;6.19;69.51
12949;BME280;6539;49.476;8.484;2024-03-08T02:24:24;100376.13;;;6.08;69.34
12949;BME280;6539;49.476;8.484;2024-03-08T02:27:10;100384.69;;;6.03;69.80
12949;BME280;6539;49.476;8.484;2024-03-08T02:29:59;100380.38;;;6.02;69.39
12949;BME280;6539;49.476;8.484;2024-03-08T02:32:48;100377.97;;;5.97;69.11
12949;BME280;6539;49.476;8.484;2024-03-08T02:35:35;100377.94;;;5.90;69.45
12949;BME280;6539;49.476;8.484;2024-03-08T02:38:23;100370.91;;;5.89;69.51
12949;BME280;6539;49.476;8.484;2024-03-08T02:41:11;100370.50;;;5.87;68.96
12949;BME280;6539;49.476;8.484;2024-03-08T02:44:00;100365.81;;;5.84;68.84
12949;BME280;6539;49.476;8.484;2024-03-08T02:46:46;100364.25;;;5.87;68.70
12949;BME280;6539;49.476;8.484;2024-03-08T02:49:32;100363.09;;;5.84;68.92
12949;BME280;6539;49.476;8.484;2024-03-08T02:52:18;100362.28;;;5.84;69.32
12949;BME280;6539;49.476;8.484;2024-03-08T02:55:08;100360.34;;;5.84;68.81
12949;BME280;6539;49.476;8.484;2024-03-08T02:57:59;100359.88;;;5.79;69.18
12949;BME280;6539;49.476;8.484;2024-03-08T03:00:49;100356.34;;;5.78;68.85
12949;BME280;6539;49.476;8.484;2024-03-08T03:03:38;100359.06;;;5.78;68.81
12949;BME280;6539;49.476;8.484;2024-03-08T03:06:26;100366.84;;;5.76;68.79
12949;BME280;6539;49.476;8.484;2024-03-08T03:09:12;100355.53;;;5.74;69.36
12949;BME280;6539;49.476;8.484;2024-03-08T03:12:05;100356.31;;;5.71;69.56
12949;BME280;6539;49.476;8.484;2024-03-08T03:14:56;100349.72;;;5.76;69.19
12949;BME280;6539;49.476;8.484;2024-03-08T03:17:47;100344.22;;;5.72;69.40
12949;BME280;6539;49.476;8.484;2024-03-08T03:20:39;100339.09;;;5.64;69.83
12949;BME280;6539;49.476;8.484;2024-03-08T03:23:28;100346.84;;;5.62;69.77
12949;BME280;6539;49.476;8.484;2024-03-08T03:26:21;100342.94;;;5.59;70.11
12949;BME280;6539;49.476;8.484;2024-03-08T03:29:08;100339.81;;;5.61;70.15
12949;BME280;6539;49.476;8.484;2024-03-08T03:31:54;100339.06;;;5.60;70.20
12949;BME280;6539;49.476;8.484;2024-03-08T03:34:41;100343.38;;;5.65;69.96
12949;BME280;6539;49.476;8.484;2024-03-08T03:37:29;100340.19;;;5.59;69.99
12949;BME280;6539;49.476;8.484;2024-03-08T03:40:18;100330.84;;;5.57;70.19
12949;BME280;6539;49.476;8.484;2024-03-08T03:43:09;100334.72;;;5.56;70.65
12949;BME280;6539;49.476;8.484;2024-03-08T03:45:55;100330.06;;;5.56;70.32
12949;BME280;6539;49.476;8.484;2024-03-08T03:48:41;100336.63;;;5.52;70.34
12949;BME280;6539;49.476;8.484;2024-03-08T03:51:31;100331.13;;;5.48;70.92
12949;BME280;6539;49.476;8.484;2024-03-08T03:54:23;100321.00;;;5.45;70.96
12949;BME280;6539;49.476;8.484;2024-03-08T03:57:09;100324.84;;;5.40;71.24
12949;BME280;6539;49.476;8.484;2024-03-08T03:59:57;100322.84;;;5.37;70.94
12949;BME280;6539;49.476;8.484;2024-03-08T04:02:48;100317.81;;;5.39;71.46
12949;BME280;6539;49.476;8.484;2024-03-08T04:05:34;100317.78;;;5.36;71.45
12949;BME280;6539;49.476;8.484;2024-03-08T04:08:20;100306.50;;;5.34;71.74
12949;BME280;6539;49.476;8.484;2024-03-08T04:11:07;100308.41;;;5.33;71.90
12949;BME280;6539;49.476;8.484;2024-03-08T04:13:56;100308.84;;;5.35;71.57
12949;BME280;6539;49.476;8.484;2024-03-08T04:16:42;100310.03;;;5.38;71.87
12949;BME280;6539;49.476;8.484;2024-03-08T04:19:31;100299.19;;;5.41;71.47
12949;BME280;6539;49.476;8.484;2024-03-08T04:22:20;100304.22;;;5.39;71.48
12949;BME280;6539;49.476;8.484;2024-03-08T04:25:09;100296.84;;;5.40;71.73
12949;BME280;6539;49.476;8.484;2024-03-08T04:27:55;100300.75;;;5.43;71.26
12949;BME280;6539;49.476;8.484;2024-03-08T04:30:42;100294.50;;;5.38;71.77
12949;BME280;6539;49.476;8.484;2024-03-08T04:33:28;100290.59;;;5.39;71.57
12949;BME280;6539;49.476;8.484;2024-03-08T04:36:17;100286.34;;;5.42;71.18
12949;BME280;6539;49.476;8.484;2024-03-08T04:39:03;100294.91;;;5.40;71.13
12949;BME280;6539;49.476;8.484;2024-03-08T04:42:02;100289.84;;;5.39;71.24
12949;BME280;6539;49.476;8.484;2024-03-08T04:44:52;100286.28;;;5.35;71.35
12949;BME280;6539;49.476;8.484;2024-03-08T04:47:39;100285.09;;;5.32;71.82
12949;BME280;6539;49.476;8.484;2024-03-08T04:50:25;100287.44;;;5.34;71.55
12949;BME280;6539;49.476;8.484;2024-03-08T04:53:14;100276.50;;;5.30;71.54
12949;BME280;6539;49.476;8.484;2024-03-08T04:56:03;100281.91;;;5.27;71.48
12949;BME280;6539;49.476;8.484;2024-03-08T04:58:52;100283.09;;;5.26;71.71
12949;BME280;6539;49.476;8.484;2024-03-08T05:01:40;100276.47;;;5.27;71.84
12949;BME280;6539;49.476;8.484;2024-03-08T05:04:28;100277.22;;;5.24;72.07
12949;BME280;6539;49.476;8.484;2024-03-08T05:07:17;100281.41;;;5.18;71.98
12949;BME280;6539;49.476;8.484;2024-03-08T05:10:03;100269.38;;;5.19;72.19
12949;BME280;6539;49.476;8.484;2024-03-08T05:12:52;100274.84;;;5.19;72.09
12949;BME280;6539;49.476;8.484;2024-03-08T05:15:40;100277.16;;;5.17;72.71
12949;BME280;6539;49.476;8.484;2024-03-08T05:18:27;100270.91;;;5.16;72.48
12949;BME280;6539;49.476;8.484;2024-03-08T05:21:17;100271.72;;;5.17;72.88
12949;BME280;6539;49.476;8.484;2024-03-08T05:24:08;100264.66;;;5.12;72.84
12949;BME280;6539;49.476;8.484;2024-03-08T05:26:55;100270.47;;;5.11;73.07
12949;BME280;6539;49.476;8.484;2024-03-08T05:29:41;100266.56;;;5.08;73.52
12949;BME280;6539;49.476;8.484;2024-03-08T05:32:32;100273.19;;;5.11;73.25
12949;BME280;6539;49.476;8.484;2024-03-08T05:35:20;100260.72;;;5.10;73.40
12949;BME280;6539;49.476;8.484;2024-03-08T05:38:08;100261.91;;;5.09;73.14
12949;BME280;6539;49.476;8.484;2024-03-08T05:40:55;100265.34;;;5.06;73.08
12949;BME280;6539;49.476;8.484;2024-03-08T05:43:41;100264.66;;;5.12;73.45
12949;BME280;6539;49.476;8.484;2024-03-08T05:46:27;100260.41;;;5.15;73.10
12949;BME280;6539;49.476;8.484;2024-03-08T05:49:16;100262.31;;;5.11;73.44
12949;BME280;6539;49.476;8.484;2024-03-08T05:52:02;100261.91;;;5.09;74.13
12949;BME280;6539;49.476;8.484;2024-03-08T05:54:48;100261.91;;;5.09;74.35
12949;BME280;6539;49.476;8.484;2024-03-08T05:57:34;100260.75;;;5.13;74.06
12949;BME280;6539;49.476;8.484;2024-03-08T06:00:25;100260.81;;;5.17;73.85
12949;BME280;6539;49.476;8.484;2024-03-08T06:03:14;100260.41;;;5.15;73.56
12949;BME280;6539;49.476;8.484;2024-03-08T06:06:00;100253.38;;;5.14;74.26
12949;BME280;6539;49.476;8.484;2024-03-08T06:08:50;100255.28;;;5.10;74.12
12949;BME280;6539;49.476;8.484;2024-03-08T06:11:38;100249.16;;;5.16;73.84
12949;BME280;6539;49.476;8.484;2024-03-08T06:14:25;100256.09;;;5.10;74.15
12949;BME280;6539;49.476;8.484;2024-03-08T06:17:11;100251.44;;;5.11;74.03
12949;BME280;6539;49.476;8.484;2024-03-08T06:19:57;100246.75;;;5.11;74.09
12949;BME280;6539;49.476;8.484;2024-03-08T06:22:43;100251.38;;;5.07;74.89
12949;BME280;6539;49.476;8.484;2024-03-08T06:25:33;100250.16;;;5.05;74.72
12949;BME280;6539;49.476;8.484;2024-03-08T06:28:20;100253.75;;;5.09;74.53
12949;BME280;6539;49.476;8.484;2024-03-08T06:31:09;100261.13;;;5.08;74.53
12949;BME280;6539;49.476;8.484;2024-03-08T06:33:59;100248.00;;;5.17;74.78
12949;BME280;6539;49.476;8.484;2024-03-08T06:36:45;100249.19;;;5.20;74.63
12949;BME280;6539;49.476;8.484;2024-03-08T06:39:33;100255.47;;;5.24;74.37
12949;BME280;6539;49.476;8.484;2024-03-08T06:42:21;100257.00;;;5.21;74.57
12949;BME280;6539;49.476;8.484;2024-03-08T06:45:08;100250.44;;;5.26;74.76
12949;BME280;6539;49.476;8.484;2024-03-08T06:47:58;100256.28;;;5.28;73.98
12949;BME280;6539;49.476;8.484;2024-03-08T06:50:46;100256.28;;;5.28;73.61
12949;BME280;6539;49.476;8.484;2024-03-08T06:53:32;100251.72;;;5.39;74.08
12949;BME280;6539;49.476;8.484;2024-03-08T06:56:21;100257.28;;;5.50;73.80
12949;BME280;6539;49.476;8.484;2024-03-08T06:59:08;100248.28;;;5.46;73.09
12949;BME280;6539;49.476;8.484;2024-03-08T07:01:56;100253.78;;;5.53;72.82
12949;BME280;6539;49.476;8.484;2024-03-08T07:04:42;100255.78;;;5.56;73.02
12949;BME280;6539;49.476;8.484;2024-03-08T07:07:28;100251.94;;;5.60;72.55
12949;BME280;6539;49.476;8.484;2024-03-08T07:10:16;100257.41;;;5.64;72.17
12949;BME280;6539;49.476;8.484;2024-03-08T07:13:05;100267.16;;;5.65;72.41
12949;BME280;6539;49.476;8.484;2024-03-08T07:15:54;100252.41;;;5.69;71.57
12949;BME280;6539;49.476;8.484;2024-03-08T07:18:43;100243.44;;;5.69;72.00
12949;BME280;6539;49.476;8.484;2024-03-08T07:21:29;100241.94;;;5.71;71.80
12949;BME280;6539;49.476;8.484;2024-03-08T07:24:18;100244.34;;;5.80;71.53
12949;BME280;6539;49.476;8.484;2024-03-08T07:27:23;100245.19;;;5.87;71.08
12949;BME280;6539;49.476;8.484;2024-03-08T07:30:10;100236.63;;;5.85;71.48
12949;BME280;6539;49.476;8.484;2024-03-08T07:32:59;100235.78;;;5.81;71.28
12949;BME280;6539;49.476;8.484;2024-03-08T07:35:45;100244.44;;;5.90;70.70
12949;BME280;6539;49.476;8.484;2024-03-08T07:38:32;100232.38;;;5.91;70.20
12949;BME280;6539;49.476;8.484;2024-03-08T07:41:23;100237.41;;;5.89;71.02
12949;BME280;6539;49.476;8.484;2024-03-08T07:44:09;100234.38;;;5.98;72.61
12949;BME280;6539;49.476;8.484;2024-03-08T07:47:00;100243.88;;;6.18;73.57
12949;BME280;6539;49.476;8.484;2024-03-08T07:49:46;100238.44;;;6.22;70.07
12949;BME280;6539;49.476;8.484;2024-03-08T07:52:34;100222.47;;;6.20;69.38
12949;BME280;6539;49.476;8.484;2024-03-08T07:55:24;100224.41;;;6.20;69.23
12949;BME280;6539;49.476;8.484;2024-03-08T07:58:10;100233.38;;;6.24;69.13
12949;BME280;6539;49.476;8.484;2024-03-08T08:00:56;100224.84;;;6.29;68.38
12949;BME280;6539;49.476;8.484;2024-03-08T08:03:46;100220.59;;;6.31;68.29
12949;BME280;6539;49.476;8.484;2024-03-08T08:06:33;100211.22;;;6.32;67.99
12949;BME280;6539;49.476;8.484;2024-03-08T08:09:20;100211.28;;;6.36;68.48
12949;BME280;6539;49.476;8.484;2024-03-08T08:12:14;100215.94;;;6.39;68.41
12949;BME280;6539;49.476;8.484;2024-03-08T08:15:00;100209.00;;;6.45;67.20
12949;BME280;6539;49.476;8.484;2024-03-08T08:17:51;100214.00;;;6.39;67.82
12949;BME280;6539;49.476;8.484;2024-03-08T08:20:37;100210.13;;;6.44;67.17
12949;BME280;6539;49.476;8.484;2024-03-08T08:23:29;100210.13;;;6.44;67.35
12949;BME280;6539;49.476;8.484;2024-03-08T08:26:15;100200.41;;;6.46;67.18
12949;BME280;6539;49.476;8.484;2024-03-08T08:29:07;100215.66;;;6.58;66.81
12949;BME280;6539;49.476;8.484;2024-03-08T08:31:58;100208.28;;;6.62;66.75
12949;BME280;6539;49.476;8.484;2024-03-08T08:34:45;100203.59;;;6.59;66.41
12949;BME280;6539;49.476;8.484;2024-03-08T08:37:32;100198.19;;;6.66;66.66
12949;BME280;6539;49.476;8.484;2024-03-08T08:40:19;100205.97;;;6.71;65.87
12949;BME280;6539;49.476;8.484;2024-03-08T08:43:05;100191.19;;;6.72;65.96
12949;BME280;6539;49.476;8.484;2024-03-08T08:45:55;100188.88;;;6.81;65.97
12949;BME280;6539;49.476;8.484;2024-03-08T08:48:44;100195.91;;;6.92;65.13
12949;BME280;6539;49.476;8.484;2024-03-08T08:51:31;100197.81;;;6.81;65.63
12949;BME280;6539;49.476;8.484;2024-03-08T08:54:21;100185.41;;;6.87;65.26
12949;BME280;6539;49.476;8.484;2024-03-08T08:57:11;100185.78;;;6.89;64.96
12949;BME280;6539;49.476;8.484;2024-03-08T08:59:57;100177.59;;;6.97;64.83
12949;BME280;6539;49.476;8.484;2024-03-08T09:02:43;100179.53;;;6.89;64.31
12949;BME280;6539;49.476;8.484;2024-03-08T09:05:29;100174.09;;;6.85;65.04
12949;BME280;6539;49.476;8.484;2024-03-08T09:08:17;100176.09;;;7.03;64.07
12949;BME280;6539;49.476;8.484;2024-03-08T09:11:06;100164.75;;;6.93;64.39
12949;BME280;6539;49.476;8.484;2024-03-08T09:13:52;100165.53;;;7.01;64.20
12949;BME280;6539;49.476;8.484;2024-03-08T09:16:38;100164.38;;;7.02;64.09
12949;BME280;6539;49.476;8.484;2024-03-08T09:19:25;100155.41;;;7.02;64.25
12949;BME280;6539;49.476;8.484;2024-03-08T09:22:11;100146.84;;;7.17;62.99
12949;BME280;6539;49.476;8.484;2024-03-08T09:25:00;100160.50;;;7.10;63.77
12949;BME280;6539;49.476;8.484;2024-03-08T09:27:46;100147.63;;;7.07;63.74
12949;BME280;6539;49.476;8.484;2024-03-08T09:30:35;100145.28;;;7.16;63.68
12949;BME280;6539;49.476;8.484;2024-03-08T09:33:25;100146.88;;;7.24;63.20
12949;BME280;6539;49.476;8.484;2024-03-08T09:36:11;100142.19;;;7.32;63.24
12949;BME280;6539;49.476;8.484;2024-03-08T09:39:04;100133.22;;;7.38;62.12
12949;BME280;6539;49.476;8.484;2024-03-08T09:41:53;100132.84;;;7.43;62.34
12949;BME280;6539;49.476;8.484;2024-03-08T09:44:47;100141.03;;;7.64;61.69
12949;BME280;6539;49.476;8.484;2024-03-08T09:47:35;100129.31;;;7.71;61.16
12949;BME280;6539;49.476;8.484;2024-03-08T09:50:27;100123.34;;;8.11;59.95
12949;BME280;6539;49.476;8.484;2024-03-08T09:53:15;100123.38;;;8.15;59.97
12949;BME280;6539;49.476;8.484;2024-03-08T09:56:02;100127.50;;;8.62;58.21
12949;BME280;6539;49.476;8.484;2024-03-08T09:58:51;100125.72;;;9.03;56.93
12949;BME280;6539;49.476;8.484;2024-03-08T10:01:56;100118.13;;;9.25;55.71
12949;BME280;6539;49.476;8.484;2024-03-08T10:04:43;100116.31;;;9.52;54.95
12949;BME280;6539;49.476;8.484;2024-03-08T10:07:32;100118.97;;;10.03;53.40
12949;BME280;6539;49.476;8.484;2024-03-08T10:10:21;100114.44;;;10.57;51.96
12949;BME280;6539;49.476;8.484;2024-03-08T10:13:12;100113.31;;;10.54;52.22
12949;BME280;6539;49.476;8.484;2024-03-08T10:16:00;100105.53;;;10.49;51.40
12949;BME280;6539;49.476;8.484;2024-03-08T10:18:47;100113.44;;;11.27;49.33
12949;BME280;6539;49.476;8.484;2024-03-08T10:21:33;100102.34;;;10.51;50.68
12949;BME280;6539;49.476;8.484;2024-03-08T10:24:19;100104.81;;;10.42;51.61
12949;BME280;6539;49.476;8.484;2024-03-08T10:27:05;100105.06;;;10.54;51.23
12949;BME280;6539;49.476;8.484;2024-03-08T10:29:56;100100.16;;;10.69;51.19
12949;BME280;6539;49.476;8.484;2024-03-08T10:32:47;100105.09;;;11.08;49.75
12949;BME280;6539;49.476;8.484;2024-03-08T10:35:36;100102.28;;;11.38;48.35
12949;BME280;6539;49.476;8.484;2024-03-08T10:38:27;100092.25;;;11.51;48.89
12949;BME280;6539;49.476;8.484;2024-03-08T10:41:19;100098.22;;;11.92;47.44
12949;BME280;6539;49.476;8.484;2024-03-08T10:47:25;100088.41;;;11.45;47.79
12949;BME280;6539;49.476;8.484;2024-03-08T10:50:19;100086.59;;;11.35;48.42
12949;BME280;6539;49.476;8.484;2024-03-08T10:53:11;100082.81;;;11.75;47.52
12949;BME280;6539;49.476;8.484;2024-03-08T10:56:00;100081.03;;;11.15;49.32
12949;BME280;6539;49.476;8.484;2024-03-08T10:58:48;100079.91;;;11.82;47.97
12949;BME280;6539;49.476;8.484;2024-03-08T11:01:37;100072.59;;;11.95;47.02
12949;BME280;6539;49.476;8.484;2024-03-08T11:04:23;100080.59;;;12.09;46.21
12949;BME280;6539;49.476;8.484;2024-03-08T11:07:12;100069.63;;;12.06;46.30
12949;BME280;6539;49.476;8.484;2024-03-08T11:10:03;100069.09;;;13.22;44.38
12949;BME280;6539;49.476;8.484;2024-03-08T11:12:56;100059.38;;;12.46;45.65
12949;BME280;6539;49.476;8.484;2024-03-08T11:15:47;100063.44;;;12.57;45.23
12949;BME280;6539;49.476;8.484;2024-03-08T11:18:35;100067.44;;;13.08;43.96
12949;BME280;6539;49.476;8.484;2024-03-08T11:21:24;100047.63;;;13.29;43.61
12949;BME280;6539;49.476;8.484;2024-03-08T11:24:13;100046.94;;;13.70;42.70
12949;BME280;6539;49.476;8.484;2024-03-08T11:27:00;100039.88;;;13.98;41.30
12949;BME280;6539;49.476;8.484;2024-03-08T11:30:03;100031.34;;;14.21;41.23
12949;BME280;6539;49.476;8.484;2024-03-08T11:33:01;100035.53;;;13.39;42.84
12949;BME280;6539;49.476;8.484;2024-03-08T11:35:49;100035.13;;;13.69;42.21
12949;BME280;6539;49.476;8.484;2024-03-08T11:38:42;100028.44;;;14.12;41.31
12949;BME280;6539;49.476;8.484;2024-03-08T11:41:37;100031.06;;;14.03;41.36
12949;BME280;6539;49.476;8.484;2024-03-08T11:44:27;100023.72;;;14.25;40.96
12949;BME280;6539;49.476;8.484;2024-03-08T11:47:17;100012.19;;;14.42;40.79
12949;BME280;6539;49.476;8.484;2024-03-08T11:50:07;100017.09;;;14.22;43.11
12949;BME280;6539;49.476;8.484;2024-03-08T11:53:04;100013.66;;;14.06;41.56
12949;BME280;6539;49.476;8.484;2024-03-08T11:55:53;100008.53;;;14.04;41.26
12949;BME280;6539;49.476;8.484;2024-03-08T11:58:40;100005.69;;;13.66;41.84
12949;BME280;6539;49.476;8.484;2024-03-08T12:01:26;100001.19;;;14.26;40.76
12949;BME280;6539;49.476;8.484;2024-03-08T12:04:15;99996.28;;;14.34;40.67
12949;BME280;6539;49.476;8.484;2024-03-08T12:07:02;99991.88;;;14.49;40.17
12949;BME280;6539;49.476;8.484;2024-03-08T12:10:21;99989.19;;;14.58;40.40
12949;BME280;6539;49.476;8.484;2024-03-08T12:13:07;99998.00;;;15.03;39.31
12949;BME280;6539;49.476;8.484;2024-03-08T12:16:02;99977.13;;;15.49;38.43
12949;BME280;6539;49.476;8.484;2024-03-08T12:18:52;99978.56;;;15.41;38.45
12949;BME280;6539;49.476;8.484;2024-03-08T12:21:42;99967.19;;;15.39;38.54
12949;BME280;6539;49.476;8.484;2024-03-08T12:24:36;99957.63;;;15.74;37.91
12949;BME280;6539;49.476;8.484;2024-03-08T12:27:23;99957.34;;;16.03;37.12
12949;BME280;6539;49.476;8.484;2024-03-08T12:30:21;99945.97;;;16.01;37.75
12949;BME280;6539;49.476;8.484;2024-03-08T12:33:07;99943.66;;;16.30;37.04
12949;BME280;6539;49.476;8.484;2024-03-08T12:35:56;99941.22;;;16.32;36.98
12949;BME280;6539;49.476;8.484;2024-03-08T12:38:46;99942.47;;;16.40;36.73
12949;BME280;6539;49.476;8.484;2024-03-08T12:41:39;99934.09;;;16.31;36.78
12949;BME280;6539;49.476;8.484;2024-03-08T12:44:26;99933.28;;;17.01;35.64
12949;BME280;6539;49.476;8.484;2024-03-08T12:47:14;99916.78;;;16.49;36.47
12949;BME280;6539;49.476;8.484;2024-03-08T12:50:01;99922.22;;;15.91;37.18
12949;BME280;6539;49.476;8.484;2024-03-08T12:52:48;99907.97;;;16.41;36.74
12949;BME280;6539;49.476;8.484;2024-03-08T12:55:38;99918.16;;;16.84;36.35
12949;BME280;6539;49.476;8.484;2024-03-08T12:58:27;99895.00;;;16.78;35.98
12949;BME280;6539;49.476;8.484;2024-03-08T13:01:13;99887.66;;;18.07;34.42
12949;BME280;6539;49.476;8.484;2024-03-08T13:04:00;99880.66;;;17.79;34.33
12949;BME280;6539;49.476;8.484;2024-03-08T13:06:50;99872.66;;;18.56;32.77
12949;BME280;6539;49.476;8.484;2024-03-08T13:09:41;99868.66;;;17.73;34.06
12949;BME280;6539;49.476;8.484;2024-03-08T13:12:28;99871.09;;;17.89;34.53
12949;BME280;6539;49.476;8.484;2024-03-08T13:15:14;99858.28;;;18.24;33.57
12949;BME280;6539;49.476;8.484;2024-03-08T13:18:06;99854.91;;;18.77;32.80
12949;BME280;6539;49.476;8.484;2024-03-08T13:20:55;99848.50;;;18.85;32.61
12949;BME280;6539;49.476;8.484;2024-03-08T13:23:43;99843.38;;;19.46;31.81
12949;BME280;6539;49.476;8.484;2024-03-08T13:26:35;99843.34;;;20.04;30.73
12949;BME280;6539;49.476;8.484;2024-03-08T13:29:21;99834.91;;;19.69;31.16
12949;BME280;6539;49.476;8.484;2024-03-08T13:32:08;99829.28;;;19.11;31.96
12949;BME280;6539;49.476;8.484;2024-03-08T13:34:57;99830.91;;;19.56;31.32
12949;BME280;6539;49.476;8.484;2024-03-08T13:37:43;99829.34;;;19.02;32.05
12949;BME280;6539;49.476;8.484;2024-03-08T13:40:34;99821.75;;;19.85;31.24
12949;BME280;6539;49.476;8.484;2024-03-08T13:43:22;99822.09;;;20.07;30.72
12949;BME280;6539;49.476;8.484;2024-03-08T13:46:08;99822.25;;;19.39;31.33
12949;BME280;6539;49.476;8.484;2024-03-08T13:48:56;99806.78;;;19.67;31.19
12949;BME280;6539;49.476;8.484;2024-03-08T13:51:51;99805.84;;;19.70;30.85
12949;BME280;6539;49.476;8.484;2024-03-08T13:54:43;99798.94;;;19.51;31.42
12949;BME280;6539;49.476;8.484;2024-03-08T13:57:29;99792.16;;;19.87;30.91
12949;BME280;6539;49.476;8.484;2024-03-08T14:00:17;99792.94;;;19.88;30.69
12949;BME280;6539;49.476;8.484;2024-03-08T14:03:06;99778.41;;;19.34;31.50
12949;BME280;6539;49.476;8.484;2024-03-08T14:05:55;99779.19;;;19.11;31.56
12949;BME280;6539;49.476;8.484;2024-03-08T14:08:43;99764.97;;;18.80;32.57
12949;BME280;6539;49.476;8.484;2024-03-08T14:11:29;99768.16;;;18.49;32.85
12949;BME280;6539;49.476;8.484;2024-03-08T14:14:17;99758.25;;;18.48;32.83
12949;BME280;6539;49.476;8.484;2024-03-08T14:17:06;99753.97;;;18.14;33.97
12949;BME280;6539;49.476;8.484;2024-03-08T14:19:55;99744.84;;;17.90;33.75
12949;BME280;6539;49.476;8.484;2024-03-08T14:22:44;99736.03;;;17.08;35.43
12949;BME280;6539;49.476;8.484;2024-03-08T14:25:34;99736.19;;;17.05;35.75
12949;BME280;6539;49.476;8.484;2024-03-08T14:28:23;99735.59;;;16.92;35.61
12949;BME280;6539;49.476;8.484;2024-03-08T14:31:09;99735.91;;;16.94;36.04
12949;BME280;6539;49.476;8.484;2024-03-08T14:34:00;99726.25;;;17.40;35.40
12949;BME280;6539;49.476;8.484;2024-03-08T14:36:48;99722.97;;;17.60;34.99
12949;BME280;6539;49.476;8.484;2024-03-08T14:39:34;99721.66;;;17.28;35.50
12949;BME280;6539;49.476;8.484;2024-03-08T14:42:23;99711.06;;;17.17;35.86
12949;BME280;6539;49.476;8.484;2024-03-08T14:45:12;99711.56;;;16.98;35.86
12949;BME280;6539;49.476;8.484;2024-03-08T14:47:58;99703.91;;;16.84;36.27
12949;BME280;6539;49.476;8.484;2024-03-08T14:50:45;99702.66;;;16.21;36.87
12949;BME280;6539;49.476;8.484;2024-03-08T14:53:33;99704.63;;;15.54;38.11
12949;BME280;6539;49.476;8.484;2024-03-08T14:56:19;99703.22;;;14.88;39.68
12949;BME280;6539;49.476;8.484;2024-03-08T14:59:07;99706.41;;;14.43;40.86
12949;BME280;6539;49.476;8.484;2024-03-08T15:01:54;99692.34;;;14.16;41.43
12949;BME280;6539;49.476;8.484;2024-03-08T15:04:40;99694.13;;;14.10;41.87
12949;BME280;6539;49.476;8.484;2024-03-08T15:07:26;99684.97;;;14.00;42.26